sensor_id;sensor_type;location;lat;lon;timestamp;P1;durP1;ratioP1;P2;durP2;ratioP2
12970;SDS011;6550;48.650;8.774;2023-02-28T00:01:12;3.33;;;1.90;;
12970;SDS011;6550;48.650;8.774;2023-02-28T00:03:44;2.10;;;1.90;;
12970;SDS011;6550;48.650;8.774;2023-02-28T00:06:11;1.97;;;1.80;;
12970;SDS011;6550;48.650;8.774;2023-02-28T00:08:40;2.50;;;1.97;;
12970;SDS011;6550;48.650;8.774;2023-02-28T00:11:11;4.43;;;2.30;;
12970;SDS011;6550;48.650;8.774;2023-02-28T00:13:42;2.37;;;2.00;;
12970;SDS011;6550;48.650;8.774;2023-02-28T00:16:13;2.57;;;1.90;;
12970;SDS011;6550;48.650;8.774;2023-02-28T00:18:42;2.93;;;2.20;;
12970;SDS011;6550;48.650;8.774;2023-02-28T00:21:11;3.50;;;1.90;;
12970;SDS011;6550;48.650;8.774;2023-02-28T00:23:38;2.67;;;1.83;;
12970;SDS011;6550;48.650;8.774;2023-02-28T00:26:04;2.30;;;2.10;;
12970;SDS011;6550;48.650;8.774;2023-02-28T00:28:31;2.40;;;1.97;;
12970;SDS011;6550;48.650;8.774;2023-02-28T00:30:58;2.30;;;1.97;;
12970;SDS011;6550;48.650;8.774;2023-02-28T00:33:26;3.47;;;2.33;;
12970;SDS011;6550;48.650;8.774;2023-02-28T00:36:00;3.50;;;2.37;;
12970;SDS011;6550;48.650;8.774;2023-02-28T00:38:32;3.13;;;2.20;;
12970;SDS011;6550;48.650;8.774;2023-02-28T00:40:58;2.40;;;2.20;;
12970;SDS011;6550;48.650;8.774;2023-02-28T00:43:31;3.27;;;2.17;;
12970;SDS011;6550;48.650;8.774;2023-02-28T00:46:02;2.43;;;2.00;;
12970;SDS011;6550;48.650;8.774;2023-02-28T00:48:30;2.70;;;2.20;;
12970;SDS011;6550;48.650;8.774;2023-02-28T00:50:59;3.90;;;2.10;;
12970;SDS011;6550;48.650;8.774;2023-02-28T00:53:26;2.83;;;2.20;;
12970;SDS011;6550;48.650;8.774;2023-02-28T00:55:59;2.73;;;2.00;;
12970;SDS011;6550;48.650;8.774;2023-02-28T00:58:29;6.00;;;2.30;;
12970;SDS011;6550;48.650;8.774;2023-02-28T01:00:56;3.63;;;2.30;;
12970;SDS011;6550;48.650;8.774;2023-02-28T01:03:23;2.47;;;1.90;;
12970;SDS011;6550;48.650;8.774;2023-02-28T01:05:52;4.47;;;2.13;;
12970;SDS011;6550;48.650;8.774;2023-02-28T01:08:21;2.37;;;2.00;;
12970;SDS011;6550;48.650;8.774;2023-02-28T01:10:48;2.33;;;2.13;;
12970;SDS011;6550;48.650;8.774;2023-02-28T01:13:18;2.63;;;2.10;;
12970;SDS011;6550;48.650;8.774;2023-02-28T01:15:49;1.87;;;1.77;;
12970;SDS011;6550;48.650;8.774;2023-02-28T01:18:20;2.20;;;2.00;;
12970;SDS011;6550;48.650;8.774;2023-02-28T01:20:50;2.47;;;2.10;;
12970;SDS011;6550;48.650;8.774;2023-02-28T01:23:19;2.17;;;1.97;;
12970;SDS011;6550;48.650;8.774;2023-02-28T01:25:47;4.83;;;2.23;;
12970;SDS011;6550;48.650;8.774;2023-02-28T01:28:16;2.80;;;2.17;;
12970;SDS011;6550;48.650;8.774;2023-02-28T01:30:47;2.37;;;2.17;;
12970;SDS011;6550;48.650;8.774;2023-02-28T01:33:14;3.17;;;2.00;;
12970;SDS011;6550;48.650;8.774;2023-02-28T01:35:41;2.33;;;1.80;;
12970;SDS011;6550;48.650;8.774;2023-02-28T01:38:08;2.83;;;1.97;;
12970;SDS011;6550;48.650;8.774;2023-02-28T01:40:48;2.20;;;2.00;;
12970;SDS011;6550;48.650;8.774;2023-02-28T01:43:52;2.93;;;2.47;;
12970;SDS011;6550;48.650;8.774;2023-02-28T01:46:13;2.70;;;2.10;;
12970;SDS011;6550;48.650;8.774;2023-02-28T01:48:49;3.40;;;2.20;;
12970;SDS011;6550;48.650;8.774;2023-02-28T01:51:28;2.20;;;2.00;;
12970;SDS011;6550;48.650;8.774;2023-02-28T01:54:02;2.83;;;2.20;;
12970;SDS011;6550;48.650;8.774;2023-02-28T01:56:42;2.70;;;2.37;;
12970;SDS011;6550;48.650;8.774;2023-02-28T01:59:14;1.90;;;1.77;;
12970;SDS011;6550;48.650;8.774;2023-02-28T02:01:49;2.55;;;2.10;;
12970;SDS011;6550;48.650;8.774;2023-02-28T02:04:16;2.80;;;2.17;;
12970;SDS011;6550;48.650;8.774;2023-02-28T02:06:44;2.63;;;1.97;;
12970;SDS011;6550;48.650;8.774;2023-02-28T02:09:13;2.77;;;2.20;;
12970;SDS011;6550;48.650;8.774;2023-02-28T02:11:40;2.83;;;2.10;;
12970;SDS011;6550;48.650;8.774;2023-02-28T02:14:16;3.93;;;2.37;;
12970;SDS011;6550;48.650;8.774;2023-02-28T02:43:44;3.13;;;2.37;;
12970;SDS011;6550;48.650;8.774;2023-02-28T02:46:25;2.80;;;2.03;;
12970;SDS011;6550;48.650;8.774;2023-02-28T02:49:00;2.30;;;1.93;;
12970;SDS011;6550;48.650;8.774;2023-02-28T02:51:32;2.93;;;2.20;;
12970;SDS011;6550;48.650;8.774;2023-02-28T02:54:02;3.00;;;2.27;;
12970;SDS011;6550;48.650;8.774;2023-02-28T02:56:39;2.87;;;2.43;;
12970;SDS011;6550;48.650;8.774;2023-02-28T02:59:09;3.03;;;1.90;;
12970;SDS011;6550;48.650;8.774;2023-02-28T03:01:39;2.53;;;2.30;;
12970;SDS011;6550;48.650;8.774;2023-02-28T03:04:11;2.60;;;2.27;;
12970;SDS011;6550;48.650;8.774;2023-02-28T03:06:42;4.37;;;2.37;;
12970;SDS011;6550;48.650;8.774;2023-02-28T03:09:11;3.40;;;2.47;;
12970;SDS011;6550;48.650;8.774;2023-02-28T03:11:38;2.80;;;2.50;;
12970;SDS011;6550;48.650;8.774;2023-02-28T03:14:25;3.83;;;2.27;;
12970;SDS011;6550;48.650;8.774;2023-02-28T03:22:45;3.53;;;2.60;;
12970;SDS011;6550;48.650;8.774;2023-02-28T03:25:25;2.83;;;2.57;;
12970;SDS011;6550;48.650;8.774;2023-02-28T03:30:59;4.03;;;2.53;;
12970;SDS011;6550;48.650;8.774;2023-02-28T03:33:38;4.10;;;2.67;;
12970;SDS011;6550;48.650;8.774;2023-02-28T03:36:12;3.57;;;2.57;;
12970;SDS011;6550;48.650;8.774;2023-02-28T03:41:24;2.50;;;2.30;;
12970;SDS011;6550;48.650;8.774;2023-02-28T03:43:59;5.70;;;2.50;;
12970;SDS011;6550;48.650;8.774;2023-02-28T03:46:32;3.80;;;2.80;;
12970;SDS011;6550;48.650;8.774;2023-02-28T03:49:12;3.20;;;2.90;;
12970;SDS011;6550;48.650;8.774;2023-02-28T03:51:46;3.70;;;2.57;;
12970;SDS011;6550;48.650;8.774;2023-02-28T03:54:19;2.73;;;2.53;;
12970;SDS011;6550;48.650;8.774;2023-02-28T03:59:57;2.90;;;2.60;;
12970;SDS011;6550;48.650;8.774;2023-02-28T04:02:27;3.73;;;3.17;;
12970;SDS011;6550;48.650;8.774;2023-02-28T04:04:54;3.03;;;2.73;;
12970;SDS011;6550;48.650;8.774;2023-02-28T04:07:23;5.97;;;2.90;;
12970;SDS011;6550;48.650;8.774;2023-02-28T04:09:51;3.60;;;3.03;;
12970;SDS011;6550;48.650;8.774;2023-02-28T04:12:20;3.67;;;3.30;;
12970;SDS011;6550;48.650;8.774;2023-02-28T04:14:49;3.70;;;2.93;;
12970;SDS011;6550;48.650;8.774;2023-02-28T04:17:21;3.80;;;3.20;;
12970;SDS011;6550;48.650;8.774;2023-02-28T04:19:50;3.20;;;2.90;;
12970;SDS011;6550;48.650;8.774;2023-02-28T04:22:17;5.40;;;3.30;;
12970;SDS011;6550;48.650;8.774;2023-02-28T04:24:44;4.47;;;3.13;;
12970;SDS011;6550;48.650;8.774;2023-02-28T04:27:13;2.87;;;2.67;;
12970;SDS011;6550;48.650;8.774;2023-02-28T04:29:42;4.43;;;3.27;;
12970;SDS011;6550;48.650;8.774;2023-02-28T04:32:10;3.83;;;3.17;;
12970;SDS011;6550;48.650;8.774;2023-02-28T04:34:37;3.33;;;3.03;;
12970;SDS011;6550;48.650;8.774;2023-02-28T04:37:07;4.27;;;2.93;;
12970;SDS011;6550;48.650;8.774;2023-02-28T04:39:39;4.30;;;3.03;;
12970;SDS011;6550;48.650;8.774;2023-02-28T04:42:09;3.70;;;3.10;;
12970;SDS011;6550;48.650;8.774;2023-02-28T04:44:37;4.10;;;3.37;;
12970;SDS011;6550;48.650;8.774;2023-02-28T04:47:06;3.47;;;3.17;;
12970;SDS011;6550;48.650;8.774;2023-02-28T04:49:35;4.00;;;3.60;;
12970;SDS011;6550;48.650;8.774;2023-02-28T04:52:02;3.77;;;3.40;;
12970;SDS011;6550;48.650;8.774;2023-02-28T04:54:28;6.90;;;3.83;;
12970;SDS011;6550;48.650;8.774;2023-02-28T04:56:55;3.77;;;3.43;;
12970;SDS011;6550;48.650;8.774;2023-02-28T04:59:23;4.75;;;3.70;;
12970;SDS011;6550;48.650;8.774;2023-02-28T05:01:52;3.50;;;3.20;;
12970;SDS011;6550;48.650;8.774;2023-02-28T05:04:19;4.37;;;3.40;;
12970;SDS011;6550;48.650;8.774;2023-02-28T05:06:48;4.53;;;3.70;;
12970;SDS011;6550;48.650;8.774;2023-02-28T05:09:21;4.07;;;3.00;;
12970;SDS011;6550;48.650;8.774;2023-02-28T05:11:48;3.97;;;3.20;;
12970;SDS011;6550;48.650;8.774;2023-02-28T05:14:15;3.67;;;3.17;;
12970;SDS011;6550;48.650;8.774;2023-02-28T05:16:44;4.68;;;3.85;;
12970;SDS011;6550;48.650;8.774;2023-02-28T05:19:10;4.60;;;4.10;;
12970;SDS011;6550;48.650;8.774;2023-02-28T05:21:38;4.20;;;3.60;;
12970;SDS011;6550;48.650;8.774;2023-02-28T05:24:17;4.23;;;3.60;;
12970;SDS011;6550;48.650;8.774;2023-02-28T05:26:49;3.57;;;3.27;;
12970;SDS011;6550;48.650;8.774;2023-02-28T05:29:18;6.40;;;3.67;;
12970;SDS011;6550;48.650;8.774;2023-02-28T05:31:48;4.53;;;4.03;;
12970;SDS011;6550;48.650;8.774;2023-02-28T05:34:15;5.17;;;3.80;;
12970;SDS011;6550;48.650;8.774;2023-02-28T05:36:42;6.50;;;3.83;;
12970;SDS011;6550;48.650;8.774;2023-02-28T05:39:13;3.70;;;3.23;;
12970;SDS011;6550;48.650;8.774;2023-02-28T05:41:42;4.03;;;3.60;;
12970;SDS011;6550;48.650;8.774;2023-02-28T05:44:10;4.53;;;3.40;;
12970;SDS011;6550;48.650;8.774;2023-02-28T05:46:37;4.17;;;3.67;;
12970;SDS011;6550;48.650;8.774;2023-02-28T05:49:04;4.75;;;4.25;;
12970;SDS011;6550;48.650;8.774;2023-02-28T05:51:31;4.13;;;3.50;;
12970;SDS011;6550;48.650;8.774;2023-02-28T05:54:02;4.03;;;3.63;;
12970;SDS011;6550;48.650;8.774;2023-02-28T05:56:31;4.17;;;3.77;;
12970;SDS011;6550;48.650;8.774;2023-02-28T05:59:00;5.40;;;3.50;;
12970;SDS011;6550;48.650;8.774;2023-02-28T06:04:02;5.13;;;4.00;;
12970;SDS011;6550;48.650;8.774;2023-02-28T06:06:30;4.83;;;3.60;;
12970;SDS011;6550;48.650;8.774;2023-02-28T06:08:57;4.13;;;3.73;;
12970;SDS011;6550;48.650;8.774;2023-02-28T06:11:24;4.37;;;3.57;;
12970;SDS011;6550;48.650;8.774;2023-02-28T06:13:55;4.20;;;3.53;;
12970;SDS011;6550;48.650;8.774;2023-02-28T06:16:23;3.97;;;3.57;;
12970;SDS011;6550;48.650;8.774;2023-02-28T06:18:52;5.37;;;3.97;;
12970;SDS011;6550;48.650;8.774;2023-02-28T06:21:22;4.17;;;3.77;;
12970;SDS011;6550;48.650;8.774;2023-02-28T06:23:51;4.53;;;3.67;;
12970;SDS011;6550;48.650;8.774;2023-02-28T06:26:20;6.50;;;4.40;;
12970;SDS011;6550;48.650;8.774;2023-02-28T06:28:47;5.50;;;3.53;;
12970;SDS011;6550;48.650;8.774;2023-02-28T06:31:15;3.80;;;3.50;;
12970;SDS011;6550;48.650;8.774;2023-02-28T06:33:43;5.60;;;4.53;;
12970;SDS011;6550;48.650;8.774;2023-02-28T06:36:11;5.13;;;4.63;;
12970;SDS011;6550;48.650;8.774;2023-02-28T06:38:42;4.40;;;4.00;;
12970;SDS011;6550;48.650;8.774;2023-02-28T06:41:09;4.80;;;4.17;;
12970;SDS011;6550;48.650;8.774;2023-02-28T06:43:38;5.00;;;3.93;;
12970;SDS011;6550;48.650;8.774;2023-02-28T06:46:10;5.03;;;4.20;;
12970;SDS011;6550;48.650;8.774;2023-02-28T06:48:40;5.73;;;4.17;;
12970;SDS011;6550;48.650;8.774;2023-02-28T06:51:10;5.60;;;4.00;;
12970;SDS011;6550;48.650;8.774;2023-02-28T06:53:39;5.37;;;4.30;;
12970;SDS011;6550;48.650;8.774;2023-02-28T06:56:13;4.77;;;3.97;;
12970;SDS011;6550;48.650;8.774;2023-02-28T06:58:41;4.97;;;3.87;;
12970;SDS011;6550;48.650;8.774;2023-02-28T07:01:08;4.30;;;3.80;;
12970;SDS011;6550;48.650;8.774;2023-02-28T07:03:35;6.43;;;4.53;;
12970;SDS011;6550;48.650;8.774;2023-02-28T07:06:02;6.27;;;4.50;;
12970;SDS011;6550;48.650;8.774;2023-02-28T07:08:30;5.30;;;4.07;;
12970;SDS011;6550;48.650;8.774;2023-02-28T07:10:57;7.43;;;4.27;;
12970;SDS011;6550;48.650;8.774;2023-02-28T07:13:24;5.90;;;4.33;;
12970;SDS011;6550;48.650;8.774;2023-02-28T07:15:58;5.53;;;4.30;;
12970;SDS011;6550;48.650;8.774;2023-02-28T07:18:28;6.77;;;5.03;;
12970;SDS011;6550;48.650;8.774;2023-02-28T07:20:57;4.90;;;4.17;;
12970;SDS011;6550;48.650;8.774;2023-02-28T07:23:24;5.53;;;4.85;;
12970;SDS011;6550;48.650;8.774;2023-02-28T07:25:53;6.57;;;4.30;;
12970;SDS011;6550;48.650;8.774;2023-02-28T07:28:22;6.17;;;4.97;;
12970;SDS011;6550;48.650;8.774;2023-02-28T07:30:52;6.10;;;4.53;;
12970;SDS011;6550;48.650;8.774;2023-02-28T07:33:21;7.40;;;4.40;;
12970;SDS011;6550;48.650;8.774;2023-02-28T07:35:49;5.67;;;4.27;;
12970;SDS011;6550;48.650;8.774;2023-02-28T07:38:16;6.10;;;4.43;;
12970;SDS011;6550;48.650;8.774;2023-02-28T07:40:43;4.80;;;4.10;;
12970;SDS011;6550;48.650;8.774;2023-02-28T07:43:12;5.13;;;4.20;;
12970;SDS011;6550;48.650;8.774;2023-02-28T07:45:39;4.80;;;4.20;;
12970;SDS011;6550;48.650;8.774;2023-02-28T07:48:08;6.03;;;4.23;;
12970;SDS011;6550;48.650;8.774;2023-02-28T07:50:38;5.60;;;4.80;;
12970;SDS011;6550;48.650;8.774;2023-02-28T07:53:05;5.87;;;4.73;;
12970;SDS011;6550;48.650;8.774;2023-02-28T07:55:31;5.90;;;4.90;;
12970;SDS011;6550;48.650;8.774;2023-02-28T07:57:58;6.60;;;4.50;;
12970;SDS011;6550;48.650;8.774;2023-02-28T08:00:25;4.30;;;3.70;;
12970;SDS011;6550;48.650;8.774;2023-02-28T08:02:55;6.97;;;4.53;;
12970;SDS011;6550;48.650;8.774;2023-02-28T08:05:21;6.70;;;4.90;;
12970;SDS011;6550;48.650;8.774;2023-02-28T08:07:49;5.23;;;4.53;;
12970;SDS011;6550;48.650;8.774;2023-02-28T08:10:18;6.38;;;4.60;;
12970;SDS011;6550;48.650;8.774;2023-02-28T08:12:47;5.87;;;4.63;;
12970;SDS011;6550;48.650;8.774;2023-02-28T08:15:14;6.30;;;4.67;;
12970;SDS011;6550;48.650;8.774;2023-02-28T08:17:40;7.10;;;5.00;;
12970;SDS011;6550;48.650;8.774;2023-02-28T08:20:09;5.20;;;4.37;;
12970;SDS011;6550;48.650;8.774;2023-02-28T08:22:39;6.53;;;4.70;;
12970;SDS011;6550;48.650;8.774;2023-02-28T08:25:11;6.13;;;4.70;;
12970;SDS011;6550;48.650;8.774;2023-02-28T08:27:40;5.60;;;4.50;;
12970;SDS011;6550;48.650;8.774;2023-02-28T08:30:10;6.70;;;4.43;;
12970;SDS011;6550;48.650;8.774;2023-02-28T08:32:39;7.33;;;4.50;;
12970;SDS011;6550;48.650;8.774;2023-02-28T08:35:06;5.47;;;4.20;;
12970;SDS011;6550;48.650;8.774;2023-02-28T08:37:35;5.73;;;4.80;;
12970;SDS011;6550;48.650;8.774;2023-02-28T08:40:02;5.97;;;4.37;;
12970;SDS011;6550;48.650;8.774;2023-02-28T08:42:30;4.70;;;4.20;;
12970;SDS011;6550;48.650;8.774;2023-02-28T08:45:01;5.87;;;4.33;;
12970;SDS011;6550;48.650;8.774;2023-02-28T08:47:28;5.57;;;4.57;;
12970;SDS011;6550;48.650;8.774;2023-02-28T08:49:54;5.10;;;4.60;;
12970;SDS011;6550;48.650;8.774;2023-02-28T08:52:21;6.37;;;4.90;;
12970;SDS011;6550;48.650;8.774;2023-02-28T08:54:48;8.25;;;5.43;;
12970;SDS011;6550;48.650;8.774;2023-02-28T08:57:15;6.40;;;5.00;;
12970;SDS011;6550;48.650;8.774;2023-02-28T08:59:42;5.40;;;4.50;;
12970;SDS011;6550;48.650;8.774;2023-02-28T09:02:09;6.03;;;5.10;;
12970;SDS011;6550;48.650;8.774;2023-02-28T09:04:39;6.13;;;5.00;;
12970;SDS011;6550;48.650;8.774;2023-02-28T09:07:07;6.23;;;5.20;;
12970;SDS011;6550;48.650;8.774;2023-02-28T09:09:36;6.68;;;5.50;;
12970;SDS011;6550;48.650;8.774;2023-02-28T09:12:03;5.27;;;4.73;;
12970;SDS011;6550;48.650;8.774;2023-02-28T09:14:31;6.33;;;5.17;;
12970;SDS011;6550;48.650;8.774;2023-02-28T09:17:00;5.50;;;5.00;;
12970;SDS011;6550;48.650;8.774;2023-02-28T09:19:26;7.57;;;5.23;;
12970;SDS011;6550;48.650;8.774;2023-02-28T09:21:53;7.33;;;5.73;;
12970;SDS011;6550;48.650;8.774;2023-02-28T09:24:20;6.60;;;5.43;;
12970;SDS011;6550;48.650;8.774;2023-02-28T09:26:47;8.03;;;5.90;;
12970;SDS011;6550;48.650;8.774;2023-02-28T09:29:29;7.43;;;5.80;;
12970;SDS011;6550;48.650;8.774;2023-02-28T09:31:58;6.47;;;5.50;;
12970;SDS011;6550;48.650;8.774;2023-02-28T09:34:26;8.97;;;6.00;;
12970;SDS011;6550;48.650;8.774;2023-02-28T09:36:53;8.27;;;6.13;;
12970;SDS011;6550;48.650;8.774;2023-02-28T09:39:21;7.20;;;6.28;;
12970;SDS011;6550;48.650;8.774;2023-02-28T09:41:50;6.53;;;5.83;;
12970;SDS011;6550;48.650;8.774;2023-02-28T09:44:40;6.90;;;6.20;;
12970;SDS011;6550;48.650;8.774;2023-02-28T09:50:03;6.27;;;5.47;;
12970;SDS011;6550;48.650;8.774;2023-02-28T09:52:44;8.47;;;6.50;;
12970;SDS011;6550;48.650;8.774;2023-02-28T09:58:17;7.37;;;5.70;;
12970;SDS011;6550;48.650;8.774;2023-02-28T10:00:58;7.73;;;6.13;;
12970;SDS011;6550;48.650;8.774;2023-02-28T10:03:38;7.13;;;5.80;;
12970;SDS011;6550;48.650;8.774;2023-02-28T10:11:32;8.60;;;6.53;;
12970;SDS011;6550;48.650;8.774;2023-02-28T10:14:06;7.93;;;6.13;;
12970;SDS011;6550;48.650;8.774;2023-02-28T10:16:43;7.03;;;6.00;;
12970;SDS011;6550;48.650;8.774;2023-02-28T10:22:03;8.80;;;6.43;;
12970;SDS011;6550;48.650;8.774;2023-02-28T10:24:47;8.93;;;5.73;;
12970;SDS011;6550;48.650;8.774;2023-02-28T10:27:16;8.70;;;6.23;;
12970;SDS011;6550;48.650;8.774;2023-02-28T10:29:44;7.67;;;6.40;;
12970;SDS011;6550;48.650;8.774;2023-02-28T10:32:31;7.20;;;5.67;;
12970;SDS011;6550;48.650;8.774;2023-02-28T10:38:05;7.30;;;6.30;;
12970;SDS011;6550;48.650;8.774;2023-02-28T10:40:44;6.33;;;5.70;;
12970;SDS011;6550;48.650;8.774;2023-02-28T10:45:39;8.13;;;6.23;;
12970;SDS011;6550;48.650;8.774;2023-02-28T10:48:34;6.23;;;5.63;;
12970;SDS011;6550;48.650;8.774;2023-02-28T10:51:06;8.10;;;6.67;;
12970;SDS011;6550;48.650;8.774;2023-02-28T10:53:38;8.50;;;6.73;;
12970;SDS011;6550;48.650;8.774;2023-02-28T10:56:28;7.13;;;6.10;;
12970;SDS011;6550;48.650;8.774;2023-02-28T11:06:56;6.90;;;5.93;;
12970;SDS011;6550;48.650;8.774;2023-02-28T11:11:55;7.03;;;6.03;;
12970;SDS011;6550;48.650;8.774;2023-02-28T11:14:26;8.40;;;6.50;;
12970;SDS011;6550;48.650;8.774;2023-02-28T11:16:56;7.67;;;5.70;;
12970;SDS011;6550;48.650;8.774;2023-02-28T11:19:31;16.87;;;6.70;;
12970;SDS011;6550;48.650;8.774;2023-02-28T11:22:04;8.30;;;7.00;;
12970;SDS011;6550;48.650;8.774;2023-02-28T11:24:40;10.07;;;6.40;;
12970;SDS011;6550;48.650;8.774;2023-02-28T11:29:58;7.20;;;6.47;;
12970;SDS011;6550;48.650;8.774;2023-02-28T11:32:27;6.87;;;6.00;;
12970;SDS011;6550;48.650;8.774;2023-02-28T11:37:38;6.73;;;5.97;;
12970;SDS011;6550;48.650;8.774;2023-02-28T11:40:18;7.13;;;5.97;;
12970;SDS011;6550;48.650;8.774;2023-02-28T11:45:28;6.82;;;6.13;;
12970;SDS011;6550;48.650;8.774;2023-02-28T11:51:11;6.80;;;6.10;;
12970;SDS011;6550;48.650;8.774;2023-02-28T11:54:23;10.30;;;6.57;;
12970;SDS011;6550;48.650;8.774;2023-02-28T12:02:52;7.60;;;6.38;;
12970;SDS011;6550;48.650;8.774;2023-02-28T12:05:43;7.27;;;6.53;;
12970;SDS011;6550;48.650;8.774;2023-02-28T12:27:34;10.45;;;7.65;;
12970;SDS011;6550;48.650;8.774;2023-02-28T12:30:04;9.63;;;7.17;;
12970;SDS011;6550;48.650;8.774;2023-02-28T12:32:45;10.53;;;6.83;;
12970;SDS011;6550;48.650;8.774;2023-02-28T12:35:23;7.33;;;6.47;;
12970;SDS011;6550;48.650;8.774;2023-02-28T12:37:55;9.23;;;6.50;;
12970;SDS011;6550;48.650;8.774;2023-02-28T12:40:27;6.97;;;6.27;;
12970;SDS011;6550;48.650;8.774;2023-02-28T12:43:02;8.27;;;6.50;;
12970;SDS011;6550;48.650;8.774;2023-02-28T12:45:44;6.97;;;6.10;;
12970;SDS011;6550;48.650;8.774;2023-02-28T12:48:15;7.57;;;6.77;;
12970;SDS011;6550;48.650;8.774;2023-02-28T12:50:50;7.77;;;6.87;;
12970;SDS011;6550;48.650;8.774;2023-02-28T12:53:25;7.80;;;6.27;;
12970;SDS011;6550;48.650;8.774;2023-02-28T12:58:54;7.30;;;6.47;;
12970;SDS011;6550;48.650;8.774;2023-02-28T13:04:36;7.70;;;6.90;;
12970;SDS011;6550;48.650;8.774;2023-02-28T13:09:59;8.43;;;7.10;;
12970;SDS011;6550;48.650;8.774;2023-02-28T13:12:28;7.37;;;6.27;;
12970;SDS011;6550;48.650;8.774;2023-02-28T13:17:30;7.30;;;6.40;;
12970;SDS011;6550;48.650;8.774;2023-02-28T13:19:58;8.63;;;6.13;;
12970;SDS011;6550;48.650;8.774;2023-02-28T13:24:53;6.43;;;5.83;;
12970;SDS011;6550;48.650;8.774;2023-02-28T13:27:24;7.67;;;6.87;;
12970;SDS011;6550;48.650;8.774;2023-02-28T13:29:52;7.03;;;6.40;;
12970;SDS011;6550;48.650;8.774;2023-02-28T13:45:25;20.47;;;6.07;;
12970;SDS011;6550;48.650;8.774;2023-02-28T13:47:54;9.10;;;5.50;;
12970;SDS011;6550;48.650;8.774;2023-02-28T13:50:33;9.00;;;6.10;;
12970;SDS011;6550;48.650;8.774;2023-02-28T13:56:01;11.43;;;4.07;;
12970;SDS011;6550;48.650;8.774;2023-02-28T14:06:46;10.33;;;5.77;;
12970;SDS011;6550;48.650;8.774;2023-02-28T14:11:56;7.80;;;5.97;;
12970;SDS011;6550;48.650;8.774;2023-02-28T14:17:14;7.53;;;6.45;;
12970;SDS011;6550;48.650;8.774;2023-02-28T14:19:46;7.10;;;6.40;;
12970;SDS011;6550;48.650;8.774;2023-02-28T14:28:25;6.80;;;5.73;;
12970;SDS011;6550;48.650;8.774;2023-02-28T14:36:27;7.03;;;6.30;;
12970;SDS011;6550;48.650;8.774;2023-02-28T14:41:38;7.33;;;6.10;;
12970;SDS011;6550;48.650;8.774;2023-02-28T14:44:25;6.90;;;6.20;;
12970;SDS011;6550;48.650;8.774;2023-02-28T14:46:54;7.57;;;6.40;;
12970;SDS011;6550;48.650;8.774;2023-02-28T14:54:31;8.50;;;6.82;;
12970;SDS011;6550;48.650;8.774;2023-02-28T14:57:01;7.97;;;7.13;;
12970;SDS011;6550;48.650;8.774;2023-02-28T14:59:29;7.07;;;6.37;;
12970;SDS011;6550;48.650;8.774;2023-02-28T15:02:14;8.00;;;6.43;;
12970;SDS011;6550;48.650;8.774;2023-02-28T15:04:51;8.23;;;6.90;;
12970;SDS011;6550;48.650;8.774;2023-02-28T15:07:20;7.07;;;6.00;;
12970;SDS011;6550;48.650;8.774;2023-02-28T15:12:56;7.57;;;6.77;;
12970;SDS011;6550;48.650;8.774;2023-02-28T15:21:15;7.23;;;6.53;;
12970;SDS011;6550;48.650;8.774;2023-02-28T15:23:59;7.83;;;6.37;;
12970;SDS011;6550;48.650;8.774;2023-02-28T15:26:34;6.60;;;5.90;;
12970;SDS011;6550;48.650;8.774;2023-02-28T15:29:06;6.97;;;6.30;;
12970;SDS011;6550;48.650;8.774;2023-02-28T15:31:46;7.30;;;6.57;;
12970;SDS011;6550;48.650;8.774;2023-02-28T15:37:28;8.37;;;6.07;;
12970;SDS011;6550;48.650;8.774;2023-02-28T15:40:04;6.97;;;6.27;;
12970;SDS011;6550;48.650;8.774;2023-02-28T15:42:37;6.17;;;5.57;;
12970;SDS011;6550;48.650;8.774;2023-02-28T15:45:32;7.33;;;6.30;;
12970;SDS011;6550;48.650;8.774;2023-02-28T15:48:05;10.50;;;6.47;;
12970;SDS011;6550;48.650;8.774;2023-02-28T15:50:41;7.30;;;5.97;;
12970;SDS011;6550;48.650;8.774;2023-02-28T15:53:19;7.37;;;6.17;;
12970;SDS011;6550;48.650;8.774;2023-02-28T15:55:58;8.43;;;6.63;;
12970;SDS011;6550;48.650;8.774;2023-02-28T15:58:27;12.27;;;6.23;;
12970;SDS011;6550;48.650;8.774;2023-02-28T16:01:07;7.00;;;6.30;;
12970;SDS011;6550;48.650;8.774;2023-02-28T16:03:45;6.83;;;5.93;;
12970;SDS011;6550;48.650;8.774;2023-02-28T16:08:43;7.57;;;6.63;;
12970;SDS011;6550;48.650;8.774;2023-02-28T16:11:11;6.63;;;5.93;;
12970;SDS011;6550;48.650;8.774;2023-02-28T16:13:38;7.60;;;6.07;;
12970;SDS011;6550;48.650;8.774;2023-02-28T16:16:04;9.13;;;6.40;;
12970;SDS011;6550;48.650;8.774;2023-02-28T16:18:31;6.70;;;5.87;;
12970;SDS011;6550;48.650;8.774;2023-02-28T16:21:00;7.40;;;6.60;;
12970;SDS011;6550;48.650;8.774;2023-02-28T16:23:29;6.83;;;6.13;;
12970;SDS011;6550;48.650;8.774;2023-02-28T16:25:58;6.50;;;5.87;;
12970;SDS011;6550;48.650;8.774;2023-02-28T16:28:31;6.80;;;6.10;;
12970;SDS011;6550;48.650;8.774;2023-02-28T16:31:06;7.40;;;5.87;;
12970;SDS011;6550;48.650;8.774;2023-02-28T16:33:34;6.97;;;6.23;;
12970;SDS011;6550;48.650;8.774;2023-02-28T16:36:00;7.97;;;6.50;;
12970;SDS011;6550;48.650;8.774;2023-02-28T16:38:32;6.57;;;5.60;;
12970;SDS011;6550;48.650;8.774;2023-02-28T16:41:00;7.23;;;5.90;;
12970;SDS011;6550;48.650;8.774;2023-02-28T16:43:29;7.80;;;6.10;;
12970;SDS011;6550;48.650;8.774;2023-02-28T16:45:58;7.17;;;6.00;;
12970;SDS011;6550;48.650;8.774;2023-02-28T16:48:26;6.43;;;5.83;;
12970;SDS011;6550;48.650;8.774;2023-02-28T16:50:53;6.60;;;5.27;;
12970;SDS011;6550;48.650;8.774;2023-02-28T16:53:20;6.77;;;5.67;;
12970;SDS011;6550;48.650;8.774;2023-02-28T16:55:47;8.23;;;5.93;;
12970;SDS011;6550;48.650;8.774;2023-02-28T16:58:16;6.90;;;5.33;;
12970;SDS011;6550;48.650;8.774;2023-02-28T17:00:45;6.83;;;5.70;;
12970;SDS011;6550;48.650;8.774;2023-02-28T17:03:17;7.40;;;6.07;;
12970;SDS011;6550;48.650;8.774;2023-02-28T17:05:59;6.17;;;5.40;;
12970;SDS011;6550;48.650;8.774;2023-02-28T17:08:26;6.60;;;5.87;;
12970;SDS011;6550;48.650;8.774;2023-02-28T17:10:57;11.40;;;6.60;;
12970;SDS011;6550;48.650;8.774;2023-02-28T17:13:27;8.30;;;5.80;;
12970;SDS011;6550;48.650;8.774;2023-02-28T17:15:54;8.70;;;6.10;;
12970;SDS011;6550;48.650;8.774;2023-02-28T17:18:23;6.90;;;6.10;;
12970;SDS011;6550;48.650;8.774;2023-02-28T17:20:50;7.67;;;6.20;;
12970;SDS011;6550;48.650;8.774;2023-02-28T17:23:19;8.90;;;6.70;;
12970;SDS011;6550;48.650;8.774;2023-02-28T17:25:46;7.60;;;6.68;;
12970;SDS011;6550;48.650;8.774;2023-02-28T17:28:22;7.40;;;5.80;;
12970;SDS011;6550;48.650;8.774;2023-02-28T17:30:50;8.07;;;6.17;;
12970;SDS011;6550;48.650;8.774;2023-02-28T17:33:19;7.40;;;5.93;;
12970;SDS011;6550;48.650;8.774;2023-02-28T17:35:48;6.40;;;5.70;;
12970;SDS011;6550;48.650;8.774;2023-02-28T17:38:16;7.50;;;5.90;;
12970;SDS011;6550;48.650;8.774;2023-02-28T17:40:47;8.32;;;6.60;;
12970;SDS011;6550;48.650;8.774;2023-02-28T17:43:16;7.00;;;6.03;;
12970;SDS011;6550;48.650;8.774;2023-02-28T17:45:43;7.93;;;6.63;;
12970;SDS011;6550;48.650;8.774;2023-02-28T17:48:11;7.77;;;6.10;;
12970;SDS011;6550;48.650;8.774;2023-02-28T17:50:40;8.27;;;6.27;;
12970;SDS011;6550;48.650;8.774;2023-02-28T17:53:09;6.97;;;5.47;;
12970;SDS011;6550;48.650;8.774;2023-02-28T17:55:38;8.00;;;6.20;;
12970;SDS011;6550;48.650;8.774;2023-02-28T17:58:08;6.87;;;5.87;;
12970;SDS011;6550;48.650;8.774;2023-02-28T18:00:39;7.60;;;6.33;;
12970;SDS011;6550;48.650;8.774;2023-02-28T18:03:06;6.93;;;5.77;;
12970;SDS011;6550;48.650;8.774;2023-02-28T18:05:36;7.57;;;5.70;;
12970;SDS011;6550;48.650;8.774;2023-02-28T18:08:05;7.27;;;5.43;;
12970;SDS011;6550;48.650;8.774;2023-02-28T18:10:32;7.87;;;6.13;;
12970;SDS011;6550;48.650;8.774;2023-02-28T18:13:01;6.93;;;5.53;;
12970;SDS011;6550;48.650;8.774;2023-02-28T18:15:30;7.73;;;6.13;;
12970;SDS011;6550;48.650;8.774;2023-02-28T18:17:59;5.77;;;4.83;;
12970;SDS011;6550;48.650;8.774;2023-02-28T18:20:28;7.40;;;6.47;;
12970;SDS011;6550;48.650;8.774;2023-02-28T18:22:55;6.90;;;5.47;;
12970;SDS011;6550;48.650;8.774;2023-02-28T18:25:21;7.33;;;5.53;;
12970;SDS011;6550;48.650;8.774;2023-02-28T18:27:48;7.40;;;5.83;;
12970;SDS011;6550;48.650;8.774;2023-02-28T18:30:24;5.67;;;5.07;;